sensor_id;sensor_type;location;lat;lon;timestamp;pressure;altitude;pressure_sealevel;temperature;humidity
62708;BME280;48769;51.624;5.886;2022-10-13T00:00:00;101791.91;;;11.73;99.36
62708;BME280;48769;51.624;5.886;2022-10-13T00:02:26;101796.22;;;11.76;99.59
62708;BME280;48769;51.624;5.886;2022-10-13T00:04:51;101787.28;;;11.78;99.55
62708;BME280;48769;51.624;5.886;2022-10-13T00:07:16;101784.50;;;11.81;99.55
62708;BME280;48769;51.624;5.886;2022-10-13T00:09:42;101789.06;;;11.78;99.87
62708;BME280;48769;51.624;5.886;2022-10-13T00:12:07;101780.94;;;11.82;100.00
62708;BME280;48769;51.624;5.886;2022-10-13T00:14:32;101782.59;;;11.86;99.70
62708;BME280;48769;51.624;5.886;2022-10-13T00:16:58;101777.19;;;11.88;99.73
62708;BME280;48769;51.624;5.886;2022-10-13T00:19:23;101763.09;;;11.87;99.96
62708;BME280;48769;51.624;5.886;2022-10-13T00:21:48;101767.56;;;11.87;100.00
62708;BME280;48769;51.624;5.886;2022-10-13T00:24:14;101767.56;;;11.87;100.00
62708;BME280;48769;51.624;5.886;2022-10-13T00:26:39;101775.41;;;11.88;100.00
62708;BME280;48769;51.624;5.886;2022-10-13T00:29:04;101774.34;;;11.92;100.00
62708;BME280;48769;51.624;5.886;2022-10-13T00:31:30;101762.97;;;11.90;100.00
62708;BME280;48769;51.624;5.886;2022-10-13T00:33:57;101765.44;;;11.95;100.00
62708;BME280;48769;51.624;5.886;2022-10-13T00:36:24;101760.84;;;11.99;100.00
62708;BME280;48769;51.624;5.886;2022-10-13T00:38:50;101761.66;;;12.01;100.00
62708;BME280;48769;51.624;5.886;2022-10-13T00:41:16;101761.44;;;12.05;100.00
62708;BME280;48769;51.624;5.886;2022-10-13T00:44:00;101745.56;;;12.05;100.00
62708;BME280;48769;51.624;5.886;2022-10-13T00:46:29;101751.59;;;12.09;100.00
62708;BME280;48769;51.624;5.886;2022-10-13T00:48:58;101750.59;;;12.11;100.00
62708;BME280;48769;51.624;5.886;2022-10-13T00:51:27;101758.50;;;12.13;100.00
62708;BME280;48769;51.624;5.886;2022-10-13T00:53:53;101761.78;;;12.18;100.00
62708;BME280;48769;51.624;5.886;2022-10-13T00:56:20;101763.41;;;12.22;100.00
62708;BME280;48769;51.624;5.886;2022-10-13T00:58:47;101754.63;;;12.20;100.00
62708;BME280;48769;51.624;5.886;2022-10-13T01:01:13;101769.47;;;12.24;100.00
62708;BME280;48769;51.624;5.886;2022-10-13T01:03:38;101756.22;;;12.24;100.00
62708;BME280;48769;51.624;5.886;2022-10-13T01:06:04;101765.75;;;12.28;100.00
62708;BME280;48769;51.624;5.886;2022-10-13T01:08:31;101749.78;;;12.30;100.00
62708;BME280;48769;51.624;5.886;2022-10-13T01:11:36;101757.97;;;12.25;100.00
62708;BME280;48769;51.624;5.886;2022-10-13T01:14:28;101754.50;;;12.23;100.00
62708;BME280;48769;51.624;5.886;2022-10-13T01:20:04;101750.78;;;12.27;100.00
62708;BME280;48769;51.624;5.886;2022-10-13T01:25:48;101745.22;;;12.33;100.00
62708;BME280;48769;51.624;5.886;2022-10-13T01:28:35;101743.44;;;12.34;100.00
62708;BME280;48769;51.624;5.886;2022-10-13T01:31:27;101743.44;;;12.34;100.00
62708;BME280;48769;51.624;5.886;2022-10-13T01:34:08;101740.84;;;12.32;100.00
62708;BME280;48769;51.624;5.886;2022-10-13T01:39:36;101736.19;;;12.37;100.00
62708;BME280;48769;51.624;5.886;2022-10-13T01:42:11;101737.94;;;12.38;100.00
62708;BME280;48769;51.624;5.886;2022-10-13T01:44:42;101735.28;;;12.38;100.00
62708;BME280;48769;51.624;5.886;2022-10-13T01:47:13;101735.22;;;12.40;100.00
62708;BME280;48769;51.624;5.886;2022-10-13T01:49:41;101733.50;;;12.39;100.00
62708;BME280;48769;51.624;5.886;2022-10-13T01:52:11;101730.75;;;12.40;100.00
62708;BME280;48769;51.624;5.886;2022-10-13T01:54:38;101738.56;;;12.44;100.00
62708;BME280;48769;51.624;5.886;2022-10-13T01:57:25;101732.19;;;12.48;100.00
62708;BME280;48769;51.624;5.886;2022-10-13T01:59:52;101729.41;;;12.51;100.00
62708;BME280;48769;51.624;5.886;2022-10-13T02:02:24;101730.34;;;12.50;100.00
62708;BME280;48769;51.624;5.886;2022-10-13T02:05:25;101727.56;;;12.53;100.00
62708;BME280;48769;51.624;5.886;2022-10-13T02:08:09;101721.28;;;12.55;100.00
62708;BME280;48769;51.624;5.886;2022-10-13T02:10:39;101722.25;;;12.53;100.00
62708;BME280;48769;51.624;5.886;2022-10-13T02:13:11;101720.28;;;12.58;100.00
62708;BME280;48769;51.624;5.886;2022-10-13T02:15:43;101720.06;;;12.62;100.00
62708;BME280;48769;51.624;5.886;2022-10-13T02:18:12;101708.47;;;12.65;100.00
62708;BME280;48769;51.624;5.886;2022-10-13T02:20:42;101706.53;;;12.69;100.00
62708;BME280;48769;51.624;5.886;2022-10-13T02:23:12;101705.66;;;12.68;100.00
62708;BME280;48769;51.624;5.886;2022-10-13T02:25:39;101705.53;;;12.71;100.00
62708;BME280;48769;51.624;5.886;2022-10-13T02:28:05;101697.56;;;12.71;100.00
62708;BME280;48769;51.624;5.886;2022-10-13T02:30:32;101702.88;;;12.71;100.00
62708;BME280;48769;51.624;5.886;2022-10-13T02:33:01;101706.38;;;12.72;100.00
62708;BME280;48769;51.624;5.886;2022-10-13T02:35:27;101701.84;;;12.74;100.00
62708;BME280;48769;51.624;5.886;2022-10-13T02:37:54;101697.56;;;12.71;100.00
62708;BME280;48769;51.624;5.886;2022-10-13T02:40:19;101693.03;;;12.73;100.00
62708;BME280;48769;51.624;5.886;2022-10-13T02:42:44;101693.03;;;12.73;100.00
62708;BME280;48769;51.624;5.886;2022-10-13T02:45:09;101692.13;;;12.74;100.00
62708;BME280;48769;51.624;5.886;2022-10-13T02:47:35;101702.72;;;12.74;100.00
62708;BME280;48769;51.624;5.886;2022-10-13T02:50:00;101693.88;;;12.74;100.00
62708;BME280;48769;51.624;5.886;2022-10-13T02:52:25;101690.38;;;12.73;100.00
62708;BME280;48769;51.624;5.886;2022-10-13T02:54:51;101692.97;;;12.75;100.00
62708;BME280;48769;51.624;5.886;2022-10-13T02:57:17;101692.13;;;12.74;100.00
62708;BME280;48769;51.624;5.886;2022-10-13T02:59:42;101691.19;;;12.75;100.00
62708;BME280;48769;51.624;5.886;2022-10-13T03:02:07;101682.44;;;12.73;100.00
62708;BME280;48769;51.624;5.886;2022-10-13T03:04:33;101682.56;;;12.70;100.00
62708;BME280;48769;51.624;5.886;2022-10-13T03:06:58;101688.66;;;12.72;100.00
62708;BME280;48769;51.624;5.886;2022-10-13T03:09:24;101681.56;;;12.73;100.00
62708;BME280;48769;51.624;5.886;2022-10-13T03:11:49;101678.06;;;12.72;100.00
62708;BME280;48769;51.624;5.886;2022-10-13T03:14:14;101665.91;;;12.68;100.00
62708;BME280;48769;51.624;5.886;2022-10-13T03:16:39;101671.19;;;12.68;100.00
62708;BME280;48769;51.624;5.886;2022-10-13T03:19:05;101674.75;;;12.67;100.00
62708;BME280;48769;51.624;5.886;2022-10-13T03:21:30;101665.03;;;12.68;100.00
62708;BME280;48769;51.624;5.886;2022-10-13T03:23:55;101667.56;;;12.71;100.00
62708;BME280;48769;51.624;5.886;2022-10-13T03:26:21;101667.59;;;12.69;100.00
62708;BME280;48769;51.624;5.886;2022-10-13T03:28:50;101655.28;;;12.68;100.00
62708;BME280;48769;51.624;5.886;2022-10-13T03:31:16;101660.59;;;12.68;100.00
62708;BME280;48769;51.624;5.886;2022-10-13T03:33:43;101654.50;;;12.66;100.00
62708;BME280;48769;51.624;5.886;2022-10-13T03:36:10;101654.50;;;12.66;100.00
62708;BME280;48769;51.624;5.886;2022-10-13T03:38:38;101645.84;;;12.62;100.00
62708;BME280;48769;51.624;5.886;2022-10-13T03:41:05;101657.28;;;12.63;100.00
62708;BME280;48769;51.624;5.886;2022-10-13T03:43:30;101651.00;;;12.66;100.00
62708;BME280;48769;51.624;5.886;2022-10-13T03:45:57;101642.94;;;12.67;100.00
62708;BME280;48769;51.624;5.886;2022-10-13T03:48:23;101653.56;;;12.67;100.00
62708;BME280;48769;51.624;5.886;2022-10-13T03:50:48;101650.84;;;12.69;100.00
62708;BME280;48769;51.624;5.886;2022-10-13T03:53:14;101642.03;;;12.68;100.00
62708;BME280;48769;51.624;5.886;2022-10-13T03:55:39;101642.81;;;12.70;100.00
62708;BME280;48769;51.624;5.886;2022-10-13T03:58:04;101649.13;;;12.68;100.00
62708;BME280;48769;51.624;5.886;2022-10-13T04:00:30;101653.56;;;12.67;100.00
62708;BME280;48769;51.624;5.886;2022-10-13T04:02:55;101653.56;;;12.67;100.00
62708;BME280;48769;51.624;5.886;2022-10-13T04:05:20;101644.53;;;12.71;100.00
62708;BME280;48769;51.624;5.886;2022-10-13T04:07:46;101651.56;;;12.72;100.00
62708;BME280;48769;51.624;5.886;2022-10-13T04:10:11;101654.28;;;12.71;100.00
62708;BME280;48769;51.624;5.886;2022-10-13T04:12:36;101649.84;;;12.71;100.00
62708;BME280;48769;51.624;5.886;2022-10-13T04:15:02;101647.41;;;12.67;100.00
62708;BME280;48769;51.624;5.886;2022-10-13T04:17:28;101643.88;;;12.66;100.00
62708;BME280;48769;51.624;5.886;2022-10-13T04:19:54;101643.84;;;12.68;100.00
62708;BME280;48769;51.624;5.886;2022-10-13T04:22:19;101634.09;;;12.68;100.00
62708;BME280;48769;51.624;5.886;2022-10-13T04:24:44;101632.34;;;12.67;100.00
62708;BME280;48769;51.624;5.886;2022-10-13T04:27:10;101639.38;;;12.68;100.00
62708;BME280;48769;51.624;5.886;2022-10-13T04:29:35;101634.78;;;12.72;100.00
62708;BME280;48769;51.624;5.886;2022-10-13T04:32:00;101620.75;;;12.70;100.00
62708;BME280;48769;51.624;5.886;2022-10-13T04:34:26;101624.41;;;12.67;100.00
62708;BME280;48769;51.624;5.886;2022-10-13T04:36:51;101612.88;;;12.68;100.00
62708;BME280;48769;51.624;5.886;2022-10-13T04:39:16;101623.47;;;12.68;100.00
62708;BME280;48769;51.624;5.886;2022-10-13T04:41:42;101620.13;;;12.65;100.00
62708;BME280;48769;51.624;5.886;2022-10-13T04:44:08;101611.22;;;12.66;100.00
62708;BME280;48769;51.624;5.886;2022-10-13T04:46:33;101614.59;;;12.69;100.00
62708;BME280;48769;51.624;5.886;2022-10-13T04:48:59;101613.50;;;12.73;100.00
62708;BME280;48769;51.624;5.886;2022-10-13T04:51:25;101616.00;;;12.76;100.00
62708;BME280;48769;51.624;5.886;2022-10-13T04:53:58;101605.41;;;12.76;100.00
62708;BME280;48769;51.624;5.886;2022-10-13T04:56:25;101613.34;;;12.76;100.00
62708;BME280;48769;51.624;5.886;2022-10-13T04:58:51;101614.00;;;12.81;100.00
62708;BME280;48769;51.624;5.886;2022-10-13T05:01:20;101612.28;;;12.80;100.00
62708;BME280;48769;51.624;5.886;2022-10-13T05:03:45;101614.00;;;12.81;100.00
62708;BME280;48769;51.624;5.886;2022-10-13T05:06:18;101601.50;;;12.83;100.00
62708;BME280;48769;51.624;5.886;2022-10-13T05:08:44;101599.66;;;12.85;100.00
62708;BME280;48769;51.624;5.886;2022-10-13T05:11:09;101602.53;;;12.81;100.00
62708;BME280;48769;51.624;5.886;2022-10-13T05:13:35;101599.75;;;12.84;100.00
62708;BME280;48769;51.624;5.886;2022-10-13T05:16:05;101594.50;;;12.82;100.00
62708;BME280;48769;51.624;5.886;2022-10-13T05:18:30;101594.19;;;12.89;100.00
62708;BME280;48769;51.624;5.886;2022-10-13T05:21:05;101597.66;;;12.91;100.00
62708;BME280;48769;51.624;5.886;2022-10-13T05:23:30;101594.84;;;12.94;100.00
62708;BME280;48769;51.624;5.886;2022-10-13T05:26:00;101598.34;;;12.94;100.00
62708;BME280;48769;51.624;5.886;2022-10-13T05:28:26;101600.16;;;12.94;100.00
62708;BME280;48769;51.624;5.886;2022-10-13T05:30:51;101607.22;;;12.93;100.00
62708;BME280;48769;51.624;5.886;2022-10-13T05:33:16;101608.31;;;12.89;100.00
62708;BME280;48769;51.624;5.886;2022-10-13T05:35:41;101598.56;;;12.90;100.00
62708;BME280;48769;51.624;5.886;2022-10-13T05:38:07;101589.69;;;12.91;100.00
62708;BME280;48769;51.624;5.886;2022-10-13T05:40:32;101595.91;;;12.90;100.00
62708;BME280;48769;51.624;5.886;2022-10-13T05:42:58;101600.66;;;12.83;100.00
62708;BME280;48769;51.624;5.886;2022-10-13T05:45:23;101601.50;;;12.83;100.00
62708;BME280;48769;51.624;5.886;2022-10-13T05:47:51;101620.06;;;12.83;100.00
62708;BME280;48769;51.624;5.886;2022-10-13T05:50:16;101627.16;;;12.83;100.00
62708;BME280;48769;51.624;5.886;2022-10-13T05:52:43;101610.25;;;12.85;100.00
62708;BME280;48769;51.624;5.886;2022-10-13T05:55:10;101620.00;;;12.85;100.00
62708;BME280;48769;51.624;5.886;2022-10-13T05:57:39;101611.25;;;12.83;100.00
62708;BME280;48769;51.624;5.886;2022-10-13T06:00:14;101613.00;;;12.84;100.00
62708;BME280;48769;51.624;5.886;2022-10-13T06:02:45;101599.41;;;12.90;100.00
62708;BME280;48769;51.624;5.886;2022-10-13T06:05:13;101605.44;;;12.94;100.00
62708;BME280;48769;51.624;5.886;2022-10-13T06:07:40;101603.56;;;12.96;100.00
62708;BME280;48769;51.624;5.886;2022-10-13T06:10:07;101599.34;;;12.92;100.00
62708;BME280;48769;51.624;5.886;2022-10-13T06:12:32;101598.50;;;12.91;100.00
62708;BME280;48769;51.624;5.886;2022-10-13T06:14:58;101596.69;;;12.92;100.00
62708;BME280;48769;51.624;5.886;2022-10-13T06:17:23;101603.66;;;12.94;100.00
62708;BME280;48769;51.624;5.886;2022-10-13T06:19:48;101600.75;;;12.99;100.00
62708;BME280;48769;51.624;5.886;2022-10-13T06:22:14;101596.00;;;13.05;100.00
62708;BME280;48769;51.624;5.886;2022-10-13T06:24:39;101593.16;;;13.10;100.00
62708;BME280;48769;51.624;5.886;2022-10-13T06:27:04;101585.94;;;13.12;100.00
62708;BME280;48769;51.624;5.886;2022-10-13T06:29:29;101589.41;;;13.14;100.00
62708;BME280;48769;51.624;5.886;2022-10-13T06:31:57;101593.69;;;13.17;100.00
62708;BME280;48769;51.624;5.886;2022-10-13T06:34:22;101591.59;;;13.23;100.00
62708;BME280;48769;51.624;5.886;2022-10-13T06:36:47;101587.78;;;13.29;100.00
62708;BME280;48769;51.624;5.886;2022-10-13T06:39:13;101591.91;;;13.35;100.00
62708;BME280;48769;51.624;5.886;2022-10-13T06:41:38;101593.47;;;13.39;100.00
62708;BME280;48769;51.624;5.886;2022-10-13T06:44:04;101591.59;;;13.41;100.00
62708;BME280;48769;51.624;5.886;2022-10-13T06:46:29;101584.13;;;13.49;100.00
62708;BME280;48769;51.624;5.886;2022-10-13T06:48:55;101585.53;;;13.56;100.00
62708;BME280;48769;51.624;5.886;2022-10-13T06:51:20;101578.78;;;13.66;100.00
62708;BME280;48769;51.624;5.886;2022-10-13T06:53:45;101571.50;;;13.70;100.00
62708;BME280;48769;51.624;5.886;2022-10-13T06:56:11;101575.00;;;13.70;100.00
62708;BME280;48769;51.624;5.886;2022-10-13T06:58:37;101580.97;;;13.75;100.00
62708;BME280;48769;51.624;5.886;2022-10-13T07:01:04;101585.94;;;13.82;100.00
62708;BME280;48769;51.624;5.886;2022-10-13T07:03:29;101592.63;;;13.89;100.00
62708;BME280;48769;51.624;5.886;2022-10-13T07:06:02;101597.94;;;13.89;100.00
62708;BME280;48769;51.624;5.886;2022-10-13T07:08:28;101587.50;;;13.86;100.00
62708;BME280;48769;51.624;5.886;2022-10-13T07:10:53;101583.13;;;13.85;100.00
62708;BME280;48769;51.624;5.886;2022-10-13T07:13:19;101583.97;;;13.85;100.00
62708;BME280;48769;51.624;5.886;2022-10-13T07:15:44;101586.69;;;13.84;100.00
62708;BME280;48769;51.624;5.886;2022-10-13T07:18:09;101579.84;;;13.79;100.00
62708;BME280;48769;51.624;5.886;2022-10-13T07:20:35;101586.00;;;13.80;100.00
62708;BME280;48769;51.624;5.886;2022-10-13T07:23:22;101585.06;;;13.81;100.00
62708;BME280;48769;51.624;5.886;2022-10-13T07:25:47;101589.53;;;13.80;100.00
62708;BME280;48769;51.624;5.886;2022-10-13T07:28:13;101588.50;;;13.83;100.00
62708;BME280;48769;51.624;5.886;2022-10-13T07:30:38;101587.50;;;13.86;100.00
62708;BME280;48769;51.624;5.886;2022-10-13T07:33:04;101593.13;;;13.79;100.00
62708;BME280;48769;51.624;5.886;2022-10-13T07:35:29;101576.88;;;13.86;100.00
62708;BME280;48769;51.624;5.886;2022-10-13T07:37:55;101583.72;;;13.90;100.00
62708;BME280;48769;51.624;5.886;2022-10-13T07:40:20;101588.28;;;13.88;100.00
62708;BME280;48769;51.624;5.886;2022-10-13T07:42:45;101582.72;;;13.92;100.00
62708;BME280;48769;51.624;5.886;2022-10-13T07:45:11;101578.25;;;13.93;100.00
62708;BME280;48769;51.624;5.886;2022-10-13T07:47:36;101580.75;;;13.96;100.00
62708;BME280;48769;51.624;5.886;2022-10-13T07:50:01;101576.53;;;13.92;100.00
62708;BME280;48769;51.624;5.886;2022-10-13T07:52:27;101581.69;;;13.95;100.00
62708;BME280;48769;51.624;5.886;2022-10-13T07:54:52;101580.56;;;13.99;100.00
62708;BME280;48769;51.624;5.886;2022-10-13T07:57:18;101583.22;;;13.99;100.00
62708;BME280;48769;51.624;5.886;2022-10-13T07:59:44;101588.66;;;13.97;100.00
62708;BME280;48769;51.624;5.886;2022-10-13T08:02:09;101585.88;;;13.99;100.00
62708;BME280;48769;51.624;5.886;2022-10-13T08:04:35;101587.69;;;13.98;100.00
62708;BME280;48769;51.624;5.886;2022-10-13T08:07:01;101587.84;;;13.95;100.00
62708;BME280;48769;51.624;5.886;2022-10-13T08:09:26;101597.00;;;13.90;100.00
62708;BME280;48769;51.624;5.886;2022-10-13T08:11:52;101595.88;;;13.94;100.00
62708;BME280;48769;51.624;5.886;2022-10-13T08:14:17;101593.06;;;13.97;100.00
62708;BME280;48769;51.624;5.886;2022-10-13T08:16:43;101599.28;;;13.97;100.00
62708;BME280;48769;51.624;5.886;2022-10-13T08:19:13;101590.41;;;13.97;100.00
62708;BME280;48769;51.624;5.886;2022-10-13T08:21:39;101586.50;;;14.04;100.00
62708;BME280;48769;51.624;5.886;2022-10-13T08:24:10;101585.28;;;14.10;100.00
62708;BME280;48769;51.624;5.886;2022-10-13T08:26:37;101586.00;;;14.13;100.00
62708;BME280;48769;51.624;5.886;2022-10-13T08:29:02;101576.41;;;14.26;100.00
62708;BME280;48769;51.624;5.886;2022-10-13T08:31:28;101568.78;;;14.36;100.00
62708;BME280;48769;51.624;5.886;2022-10-13T08:33:53;101575.66;;;14.40;100.00
62708;BME280;48769;51.624;5.886;2022-10-13T08:36:18;101579.53;;;14.51;100.00
62708;BME280;48769;51.624;5.886;2022-10-13T08:38:44;101579.88;;;14.60;100.00
62708;BME280;48769;51.624;5.886;2022-10-13T08:41:18;101583.28;;;14.62;99.32
62708;BME280;48769;51.624;5.886;2022-10-13T08:43:52;101574.03;;;14.69;98.88
62708;BME280;48769;51.624;5.886;2022-10-13T08:46:25;101581.56;;;14.77;98.22
62708;BME280;48769;51.624;5.886;2022-10-13T08:48:52;101584.16;;;14.79;98.35
62708;BME280;48769;51.624;5.886;2022-10-13T08:51:19;101568.69;;;14.85;98.12
62708;BME280;48769;51.624;5.886;2022-10-13T08:53:45;101575.91;;;14.83;97.66
62708;BME280;48769;51.624;5.886;2022-10-13T08:56:24;101580.53;;;14.80;97.89
62708;BME280;48769;51.624;5.886;2022-10-13T08:58:51;101579.34;;;14.85;98.25
62708;BME280;48769;51.624;5.886;2022-10-13T09:01:21;101574.09;;;14.84;97.67
62708;BME280;48769;51.624;5.886;2022-10-13T09:04:42;101572.78;;;14.91;98.08
62708;BME280;48769;51.624;5.886;2022-10-13T09:06:48;101563.69;;;14.95;97.24
62708;BME280;48769;51.624;5.886;2022-10-13T09:09:17;101564.50;;;15.11;96.89
62708;BME280;48769;51.624;5.886;2022-10-13T09:11:45;101561.16;;;15.38;96.46
62708;BME280;48769;51.624;5.886;2022-10-13T09:16:55;101553.59;;;15.89;95.22
62708;BME280;48769;51.624;5.886;2022-10-13T09:19:30;101549.22;;;15.88;93.39
62708;BME280;48769;51.624;5.886;2022-10-13T09:22:24;101545.41;;;16.06;93.58
62708;BME280;48769;51.624;5.886;2022-10-13T09:30:41;101548.28;;;15.75;91.25
62708;BME280;48769;51.624;5.886;2022-10-13T09:35:43;101549.41;;;15.71;92.81
62708;BME280;48769;51.624;5.886;2022-10-13T09:38:20;101547.72;;;15.70;92.56
62708;BME280;48769;51.624;5.886;2022-10-13T09:45:56;101540.81;;;15.65;92.48
62708;BME280;48769;51.624;5.886;2022-10-13T09:48:40;101539.91;;;15.67;92.12
62708;BME280;48769;51.624;5.886;2022-10-13T09:51:28;101547.28;;;15.61;92.34
62708;BME280;48769;51.624;5.886;2022-10-13T09:53:55;101542.06;;;15.60;92.17
62708;BME280;48769;51.624;5.886;2022-10-13T09:56:40;101537.00;;;15.55;92.48
62708;BME280;48769;51.624;5.886;2022-10-13T09:59:30;101542.16;;;15.58;92.69
62708;BME280;48769;51.624;5.886;2022-10-13T10:02:00;101532.81;;;15.65;93.10
62708;BME280;48769;51.624;5.886;2022-10-13T10:04:34;101527.91;;;15.74;92.29
62708;BME280;48769;51.624;5.886;2022-10-13T10:07:14;101529.63;;;15.75;92.10
62708;BME280;48769;51.624;5.886;2022-10-13T10:09:50;101534.00;;;15.76;91.83
62708;BME280;48769;51.624;5.886;2022-10-13T10:12:19;101540.88;;;15.80;91.74
62708;BME280;48769;51.624;5.886;2022-10-13T10:14:45;101526.97;;;15.75;91.72
62708;BME280;48769;51.624;5.886;2022-10-13T10:23:17;101532.94;;;15.78;91.84
62708;BME280;48769;51.624;5.886;2022-10-13T10:25:49;101530.00;;;15.83;91.75
62708;BME280;48769;51.624;5.886;2022-10-13T10:28:26;101528.28;;;15.82;91.83
62708;BME280;48769;51.624;5.886;2022-10-13T10:31:28;101526.31;;;15.71;92.23
62708;BME280;48769;51.624;5.886;2022-10-13T10:36:50;101530.00;;;15.69;92.70
62708;BME280;48769;51.624;5.886;2022-10-13T10:42:02;101536.63;;;15.61;93.58
62708;BME280;48769;51.624;5.886;2022-10-13T10:44:35;101524.09;;;15.63;92.99
62708;BME280;48769;51.624;5.886;2022-10-13T10:47:08;101535.78;;;15.61;94.34
62708;BME280;48769;51.624;5.886;2022-10-13T10:49:36;101543.84;;;15.59;94.81
62708;BME280;48769;51.624;5.886;2022-10-13T10:52:07;101532.63;;;15.54;95.37
62708;BME280;48769;51.624;5.886;2022-10-13T10:54:45;101531.88;;;15.52;96.00
62708;BME280;48769;51.624;5.886;2022-10-13T11:00:04;101530.25;;;15.50;97.22
62708;BME280;48769;51.624;5.886;2022-10-13T11:02:43;101528.25;;;15.39;98.07
62708;BME280;48769;51.624;5.886;2022-10-13T11:05:13;101525.09;;;15.32;98.26
62708;BME280;48769;51.624;5.886;2022-10-13T11:10:24;101516.81;;;15.37;98.76
62708;BME280;48769;51.624;5.886;2022-10-13T11:17:44;101515.31;;;15.33;100.00
62708;BME280;48769;51.624;5.886;2022-10-13T11:25:41;101498.94;;;15.25;100.00
62708;BME280;48769;51.624;5.886;2022-10-13T11:30:49;101503.97;;;15.29;100.00
62708;BME280;48769;51.624;5.886;2022-10-13T11:36:28;101491.34;;;15.33;100.00
62708;BME280;48769;51.624;5.886;2022-10-13T11:39:01;101493.63;;;15.39;100.00
62708;BME280;48769;51.624;5.886;2022-10-13T11:41:41;101482.50;;;15.47;100.00
62708;BME280;48769;51.624;5.886;2022-10-13T11:44:18;101487.91;;;15.59;100.00
62708;BME280;48769;51.624;5.886;2022-10-13T11:47:03;101485.00;;;15.64;100.00
62708;BME280;48769;51.624;5.886;2022-10-13T11:55:31;101481.13;;;15.70;100.00
62708;BME280;48769;51.624;5.886;2022-10-13T11:58:08;101482.72;;;15.72;100.00
62708;BME280;48769;51.624;5.886;2022-10-13T12:00:34;101468.34;;;15.75;100.00
62708;BME280;48769;51.624;5.886;2022-10-13T12:03:02;101475.38;;;15.76;100.00
62708;BME280;48769;51.624;5.886;2022-10-13T12:05:28;101477.13;;;15.77;100.00
62708;BME280;48769;51.624;5.886;2022-10-13T12:08:00;101474.25;;;15.80;100.00
62708;BME280;48769;51.624;5.886;2022-10-13T12:10:30;101469.47;;;15.85;100.00
62708;BME280;48769;51.624;5.886;2022-10-13T12:12:56;101474.81;;;15.85;100.00
62708;BME280;48769;51.624;5.886;2022-10-13T12:15:43;101470.63;;;15.81;100.00
62708;BME280;48769;51.624;5.886;2022-10-13T12:18:20;101467.97;;;15.81;100.00
62708;BME280;48769;51.624;5.886;2022-10-13T12:20:54;101469.47;;;15.85;100.00
62708;BME280;48769;51.624;5.886;2022-10-13T12:23:20;101467.00;;;15.82;100.00
62708;BME280;48769;51.624;5.886;2022-10-13T12:25:50;101475.19;;;15.79;100.00
62708;BME280;48769;51.624;5.886;2022-10-13T12:28:21;101461.53;;;15.71;100.00
62708;BME280;48769;51.624;5.886;2022-10-13T12:31:04;101457.16;;;15.70;100.00
62708;BME280;48769;51.624;5.886;2022-10-13T12:33:32;101461.72;;;15.68;100.00
62708;BME280;48769;51.624;5.886;2022-10-13T12:36:19;101465.50;;;15.63;100.00
62708;BME280;48769;51.624;5.886;2022-10-13T12:38:51;101459.00;;;15.53;100.00
62708;BME280;48769;51.624;5.886;2022-10-13T12:41:21;101458.34;;;15.50;100.00
62708;BME280;48769;51.624;5.886;2022-10-13T12:43:49;101453.22;;;15.47;100.00
62708;BME280;48769;51.624;5.886;2022-10-13T12:49:12;101458.34;;;15.35;100.00
62708;BME280;48769;51.624;5.886;2022-10-13T12:51:39;101461.09;;;15.34;100.00
62708;BME280;48769;51.624;5.886;2022-10-13T12:54:06;101454.19;;;15.31;100.00
62708;BME280;48769;51.624;5.886;2022-10-13T12:56:32;101459.78;;;15.27;100.00
62708;BME280;48769;51.624;5.886;2022-10-13T12:58:58;101455.13;;;15.16;100.00
62708;BME280;48769;51.624;5.886;2022-10-13T13:01:34;101452.25;;;15.05;100.00
62708;BME280;48769;51.624;5.886;2022-10-13T13:04:17;101456.16;;;14.99;100.00
62708;BME280;48769;51.624;5.886;2022-10-13T13:06:59;101448.91;;;15.01;100.00
62708;BME280;48769;51.624;5.886;2022-10-13T13:09:33;101454.50;;;14.96;100.00
62708;BME280;48769;51.624;5.886;2022-10-13T13:14:37;101447.31;;;14.99;100.00
62708;BME280;48769;51.624;5.886;2022-10-13T13:17:13;101450.72;;;15.01;100.00
62708;BME280;48769;51.624;5.886;2022-10-13T13:19:40;101451.38;;;15.04;100.00
62708;BME280;48769;51.624;5.886;2022-10-13T13:22:07;101451.56;;;15.01;100.00
62708;BME280;48769;51.624;5.886;2022-10-13T13:24:32;101449.09;;;14.98;100.00
62708;BME280;48769;51.624;5.886;2022-10-13T13:26:58;101452.94;;;15.08;100.00
62708;BME280;48769;51.624;5.886;2022-10-13T13:29:25;101453.78;;;15.09;100.00
62708;BME280;48769;51.624;5.886;2022-10-13T13:31:51;101450.16;;;15.10;100.00
62708;BME280;48769;51.624;5.886;2022-10-13T13:34:16;101459.59;;;15.15;100.00
62708;BME280;48769;51.624;5.886;2022-10-13T13:36:42;101437.91;;;15.22;100.00
62708;BME280;48769;51.624;5.886;2022-10-13T13:39:15;101442.09;;;15.26;100.00
62708;BME280;48769;51.624;5.886;2022-10-13T13:41:42;101436.88;;;15.24;100.00
62708;BME280;48769;51.624;5.886;2022-10-13T13:44:08;101432.00;;;15.16;100.00
62708;BME280;48769;51.624;5.886;2022-10-13T13:46:33;101434.50;;;15.19;100.00
62708;BME280;48769;51.624;5.886;2022-10-13T13:48:59;101428.22;;;15.20;100.00
62708;BME280;48769;51.624;5.886;2022-10-13T13:51:34;101428.97;;;15.23;100.00
62708;BME280;48769;51.624;5.886;2022-10-13T13:54:17;101428.91;;;15.24;100.00
62708;BME280;48769;51.624;5.886;2022-10-13T13:56:59;101426.72;;;15.31;100.00
62708;BME280;48769;51.624;5.886;2022-10-13T13:59:24;101430.31;;;15.30;100.00
62708;BME280;48769;51.624;5.886;2022-10-13T14:01:49;101420.81;;;15.26;100.00